Time;durP1;ratioP1;P1;durP2;ratioP2;P2;SDS_P1;SDS_P2;PMS_P1;PMS_P2;Temp;Humidity;BMP_temperature;BMP_pressure;BME280_temperature;BME280_humidity;BME280_pressure;Samples;Min_cycle;Max_cycle;Signal;HPM_P1;HPM_P2
2022/09/29 00:01:06;;;;;;;16.48;15.32;;;8.50;93.70;;;;;;5022685;28;20198;-75
2022/09/29 00:03:33;;;;;;;16.20;15.20;;;8.50;93.70;;;;;;5025044;28;20221;-80
2022/09/29 00:06:00;;;;;;;16.73;15.35;;;8.60;93.40;;;;;;5027367;28;20200;-73
2022/09/29 00:08:28;;;;;;;16.40;15.50;;;8.60;93.50;;;;;;5027353;28;20194;-75
2022/09/29 00:10:55;;;;;;;16.48;15.48;;;8.60;93.40;;;;;;5026270;28;20215;-79
2022/09/29 00:13:23;;;;;;;16.00;15.15;;;8.60;93.60;;;;;;5029697;28;20232;-76
2022/09/29 00:16:00;;;;;;;16.00;15.10;;;8.70;93.80;;;;;;5025419;28;20234;-73
2022/09/29 00:18:27;;;;;;;16.63;15.65;;;8.70;93.30;;;;;;5022834;28;20703;-74
2022/09/29 00:20:58;;;;;;;15.88;14.98;;;8.80;93.30;;;;;;5033903;28;20208;-74
2022/09/29 00:23:26;;;;;;;16.27;15.27;;;8.70;93.30;;;;;;5026265;28;20217;-75
2022/09/29 00:26:04;;;;;;;16.40;15.20;;;8.90;93.20;;;;;;5025001;28;20202;-73
2022/09/29 00:28:32;;;;;;;16.48;15.52;;;8.90;93.00;;;;;;5022468;28;20209;-80
2022/09/29 00:31:01;;;;;;;16.50;15.50;;;8.90;92.80;;;;;;5026138;28;20559;-72
2022/09/29 00:33:30;;;;;;;17.33;16.10;;;8.80;93.00;;;;;;5027733;28;20214;-72
2022/09/29 00:35:58;;;;;;;17.30;16.30;;;8.80;93.30;;;;;;5019381;28;20489;-73
2022/09/29 00:38:26;;;;;;;16.17;15.27;;;9.00;93.10;;;;;;5020457;28;20518;-74
2022/09/29 00:40:52;;;;;;;15.90;14.87;;;9.00;92.80;;;;;;5021823;28;20236;-79
2022/09/29 00:43:22;;;;;;;16.35;15.45;;;8.90;93.20;;;;;;5025337;28;20480;-74
2022/09/29 00:45:51;;;;;;;16.10;15.20;;;8.90;93.10;;;;;;5022544;28;20205;-74
2022/09/29 00:48:29;;;;;;;15.13;14.43;;;8.90;93.10;;;;;;5027506;28;20199;-74
2022/09/29 00:50:56;;;;;;;16.23;15.32;;;9.00;92.90;;;;;;5025523;28;20204;-74
2022/09/29 00:53:24;;;;;;;16.75;15.85;;;8.90;92.80;;;;;;5024744;28;20578;-76
2022/09/29 00:55:56;;;;;;;17.07;15.97;;;9.00;92.60;;;;;;5024082;28;20210;-73
2022/09/29 00:58:30;;;;;;;16.90;15.60;;;9.00;92.60;;;;;;5023213;28;20476;-73
2022/09/29 01:00:58;;;;;;;17.80;16.80;;;9.00;92.60;;;;;;5028334;28;20478;-73
2022/09/29 01:03:29;;;;;;;17.17;16.25;;;9.00;92.60;;;;;;5027009;28;20242;-73
2022/09/29 01:06:01;;;;;;;17.77;16.87;;;9.10;92.60;;;;;;5026944;28;20196;-72
2022/09/29 01:08:32;;;;;;;18.55;17.50;;;9.10;92.40;;;;;;5024843;28;20950;-76
2022/09/29 01:11:01;;;;;;;16.55;15.60;;;9.10;92.30;;;;;;5028501;28;20210;-72
2022/09/29 01:13:29;;;;;;;16.67;15.80;;;9.00;92.60;;;;;;5026896;28;20313;-72
2022/09/29 01:15:56;;;;;;;16.60;15.70;;;9.00;93.00;;;;;;5029770;28;20483;-75
2022/09/29 01:18:23;;;;;;;16.63;15.70;;;9.10;92.90;;;;;;5025910;28;20468;-75
2022/09/29 01:20:57;;;;;;;16.53;15.60;;;9.10;92.80;;;;;;5027153;28;20462;-76
2022/09/29 01:24:26;;;;;;;16.33;15.32;;;9.10;92.60;;;;;;5021789;28;20496;-75
2022/09/29 01:27:13;;;;;;;17.73;16.90;;;9.10;92.60;;;;;;4982166;28;20269;-75
2022/09/29 01:30:14;;;;;;;18.97;17.77;;;9.10;92.80;;;;;;4982391;28;20854;-73
2022/09/29 01:32:56;;;;;;;16.77;15.87;;;9.20;92.20;;;;;;5024015;28;22498;-74
2022/09/29 01:35:56;;;;;;;17.20;16.07;;;9.20;92.20;;;;;;5022544;28;20476;-73
2022/09/29 01:38:39;;;;;;;16.58;15.77;;;9.30;91.90;;;;;;5023194;28;20454;-73
2022/09/29 01:41:12;;;;;;;17.20;16.20;;;9.20;92.10;;;;;;5018735;28;20203;-78
2022/09/29 01:43:46;;;;;;;17.58;15.98;;;9.20;91.90;;;;;;5021950;28;20484;-72
2022/09/29 01:46:20;;;;;;;17.35;16.30;;;9.20;92.10;;;;;;5023165;28;20212;-72
2022/09/29 01:48:52;;;;;;;16.83;15.93;;;9.20;92.00;;;;;;5017788;28;20667;-74
2022/09/29 01:51:23;;;;;;;16.27;15.27;;;9.20;92.10;;;;;;5024478;28;20195;-73
2022/09/29 01:53:53;;;;;;;17.00;15.68;;;9.20;92.60;;;;;;5019505;28;20487;-75
2022/09/29 01:56:26;;;;;;;16.58;15.68;;;9.20;92.60;;;;;;5023040;28;20222;-73
2022/09/29 01:58:56;;;;;;;17.20;16.20;;;9.20;92.60;;;;;;5021149;28;20207;-72
2022/09/29 02:01:26;;;;;;;17.00;15.80;;;9.20;92.70;;;;;;5021171;28;20468;-80
2022/09/29 02:03:59;;;;;;;17.10;16.20;;;9.30;92.40;;;;;;5020868;28;20577;-72
2022/09/29 02:06:29;;;;;;;16.40;15.40;;;9.30;92.50;;;;;;5020270;28;20469;-74
2022/09/29 02:08:58;;;;;;;16.00;15.20;;;9.30;92.40;;;;;;5023213;28;20989;-72
2022/09/29 02:11:27;;;;;;;17.27;16.37;;;9.40;92.30;;;;;;5024820;28;20546;-72
2022/09/29 02:14:04;;;;;;;15.63;14.83;;;9.40;92.30;;;;;;5026238;28;20490;-75
2022/09/29 02:16:35;;;;;;;17.17;16.37;;;9.40;92.40;;;;;;5018851;28;20484;-72
2022/09/29 02:19:09;;;;;;;17.40;16.40;;;9.40;92.20;;;;;;5033514;28;20470;-75
2022/09/29 02:21:36;;;;;;;17.30;16.30;;;9.40;92.30;;;;;;5027734;28;20484;-72
2022/09/29 02:24:03;;;;;;;17.50;16.57;;;9.50;92.20;;;;;;5031631;28;20848;-73
2022/09/29 02:26:34;;;;;;;18.27;17.27;;;9.50;92.20;;;;;;5026773;28;21168;-74
2022/09/29 02:29:02;;;;;;;18.50;17.20;;;9.50;92.00;;;;;;5024589;28;20466;-76
2022/09/29 02:31:30;;;;;;;18.53;17.63;;;9.50;91.80;;;;;;5027899;28;20838;-73
2022/09/29 02:33:57;;;;;;;18.20;17.20;;;9.50;92.10;;;;;;5028403;28;20984;-74
2022/09/29 02:36:39;;;;;;;24.27;22.97;;;9.50;92.20;;;;;;5024388;28;21129;-75
2022/09/29 02:39:15;;;;;;;18.27;17.27;;;9.50;91.80;;;;;;5026657;28;20468;-76
2022/09/29 02:41:50;;;;;;;21.10;19.80;;;9.50;92.00;;;;;;5030564;28;20911;-74
2022/09/29 02:44:34;;;;;;;17.70;16.80;;;9.60;91.60;;;;;;5026314;28;20484;-72
2022/09/29 02:47:22;;;;;;;22.03;20.93;;;9.60;91.80;;;;;;5024400;28;20467;-74
2022/09/29 02:50:07;;;;;;;20.30;19.40;;;9.60;92.00;;;;;;5030779;28;20467;-74
2022/09/29 02:52:46;;;;;;;24.17;23.07;;;9.60;92.00;;;;;;5026545;28;20462;-70
2022/09/29 02:55:18;;;;;;;18.47;17.13;;;9.70;91.70;;;;;;5023897;28;20997;-72
2022/09/29 02:57:50;;;;;;;17.50;16.70;;;9.70;91.40;;;;;;5025806;28;20471;-74
2022/09/29 03:00:19;;;;;;;24.97;23.57;;;9.70;91.50;;;;;;5021483;28;20481;-72
2022/09/29 03:02:46;;;;;;;18.90;18.03;;;9.70;91.40;;;;;;5025159;28;20482;-73
2022/09/29 03:05:15;;;;;;;17.60;16.70;;;9.60;91.70;;;;;;5027062;28;20979;-73
2022/09/29 03:07:43;;;;;;;36.13;34.47;;;9.60;91.80;;;;;;5023104;28;20513;-73
2022/09/29 03:10:12;;;;;;;18.53;17.37;;;9.60;92.00;;;;;;5028297;28;20471;-74
2022/09/29 03:12:40;;;;;;;18.37;17.47;;;9.60;92.10;;;;;;5025738;28;20509;-72
2022/09/29 03:15:08;;;;;;;20.03;19.10;;;9.60;91.90;;;;;;5024443;28;20804;-72
2022/09/29 03:17:35;;;;;;;17.30;16.40;;;9.60;92.00;;;;;;5021794;28;20814;-73
2022/09/29 03:20:02;;;;;;;18.73;17.60;;;9.60;92.20;;;;;;5027780;28;20844;-74
2022/09/29 03:22:29;;;;;;;17.77;16.90;;;9.60;92.00;;;;;;5025165;28;20883;-74
2022/09/29 03:24:58;;;;;;;25.63;24.50;;;9.60;92.20;;;;;;5030548;28;20462;-73
2022/09/29 03:27:25;;;;;;;17.93;17.03;;;9.60;92.00;;;;;;5025328;28;20478;-77
2022/09/29 03:29:52;;;;;;;30.83;29.43;;;9.60;91.90;;;;;;5024222;28;20452;-73
2022/09/29 03:32:19;;;;;;;24.17;22.87;;;9.60;92.00;;;;;;5027112;28;20452;-72
2022/09/29 03:34:45;;;;;;;19.67;18.67;;;9.50;92.20;;;;;;5027159;28;20454;-78
2022/09/29 03:37:12;;;;;;;23.00;21.80;;;9.50;92.20;;;;;;5026179;28;20558;-73
2022/09/29 03:39:39;;;;;;;20.20;19.30;;;9.50;92.20;;;;;;5022298;28;20470;-73
2022/09/29 03:42:08;;;;;;;23.40;22.20;;;9.50;92.20;;;;;;5022587;28;20468;-76
2022/09/29 03:44:35;;;;;;;18.87;17.87;;;9.40;92.10;;;;;;5023647;28;20514;-73
2022/09/29 03:47:02;;;;;;;26.13;24.50;;;9.40;92.40;;;;;;5024575;28;20551;-73
2022/09/29 03:49:29;;;;;;;23.10;22.00;;;9.30;92.50;;;;;;5026890;28;20554;-73
2022/09/29 03:51:55;;;;;;;19.43;18.37;;;9.30;92.80;;;;;;5023881;28;20524;-72
2022/09/29 03:54:25;;;;;;;34.80;33.20;;;9.20;92.90;;;;;;5021577;28;20514;-72
2022/09/29 03:56:52;;;;;;;20.50;19.37;;;9.20;93.00;;;;;;5027773;28;20482;-76
2022/09/29 03:59:20;;;;;;;31.57;30.07;;;9.10;93.10;;;;;;5027556;28;20463;-72
2022/09/29 04:01:47;;;;;;;25.83;24.13;;;9.10;93.30;;;;;;5026811;28;20511;-76
2022/09/29 04:04:14;;;;;;;19.30;18.23;;;9.10;93.20;;;;;;5025140;28;20478;-79
2022/09/29 04:06:41;;;;;;;24.53;23.10;;;9.10;93.30;;;;;;5025432;28;21072;-73
2022/09/29 04:09:07;;;;;;;15.30;14.50;;;9.00;93.30;;;;;;5028767;28;20960;-72
2022/09/29 04:11:34;;;;;;;25.80;24.50;;;9.00;93.30;;;;;;5024135;28;20469;-73
2022/09/29 04:14:01;;;;;;;19.67;18.67;;;8.90;93.60;;;;;;5024484;28;20488;-73
2022/09/29 04:16:29;;;;;;;29.77;28.40;;;8.90;93.60;;;;;;5025977;28;20560;-73
2022/09/29 04:18:56;;;;;;;17.77;16.88;;;8.90;93.60;;;;;;5023880;28;20910;-73
2022/09/29 04:21:23;;;;;;;20.20;19.10;;;8.90;93.60;;;;;;5025507;28;20192;-73
2022/09/29 04:23:50;;;;;;;33.57;31.70;;;8.80;93.60;;;;;;5023830;28;20485;-79
2022/09/29 04:26:19;;;;;;;17.77;16.58;;;8.80;93.70;;;;;;5030201;28;20468;-72
2022/09/29 04:28:46;;;;;;;24.30;23.03;;;8.70;93.80;;;;;;5022364;28;20289;-77
2022/09/29 04:31:13;;;;;;;32.57;31.07;;;8.70;94.00;;;;;;5025378;28;20536;-71
2022/09/29 04:33:41;;;;;;;26.98;25.70;;;8.70;94.10;;;;;;5023808;28;20484;-73
2022/09/29 04:36:08;;;;;;;18.20;17.10;;;8.60;94.20;;;;;;5022264;28;20230;-72
2022/09/29 04:38:35;;;;;;;28.33;26.92;;;8.60;94.20;;;;;;5022341;28;20589;-73
2022/09/29 04:41:03;;;;;;;22.00;20.80;;;8.60;94.20;;;;;;5020339;28;20462;-74
2022/09/29 04:43:30;;;;;;;36.50;34.50;;;8.80;93.90;;;;;;5024169;28;20217;-74
2022/09/29 04:46:03;;;;;;;24.83;23.67;;;8.70;93.60;;;;;;5031819;28;20195;-77
2022/09/29 04:48:30;;;;;;;26.63;25.27;;;8.60;93.90;;;;;;5029021;28;20831;-71
2022/09/29 04:50:58;;;;;;;35.17;33.47;;;8.60;94.00;;;;;;5031331;28;20457;-73
2022/09/29 04:53:25;;;;;;;26.88;25.48;;;8.60;93.90;;;;;;5024151;28;20217;-71
2022/09/29 04:55:52;;;;;;;21.10;19.70;;;8.50;94.00;;;;;;5026206;28;20220;-71
2022/09/29 04:58:19;;;;;;;20.05;19.00;;;8.40;94.30;;;;;;5018202;28;20213;-72
2022/09/29 05:00:46;;;;;;;32.15;30.55;;;8.30;94.50;;;;;;5024189;28;20198;-72
2022/09/29 05:03:13;;;;;;;38.05;36.38;;;8.30;94.50;;;;;;5024377;28;20224;-72
2022/09/29 05:05:40;;;;;;;18.40;17.38;;;8.30;94.60;;;;;;5023964;28;20189;-71
2022/09/29 05:08:09;;;;;;;18.25;17.13;;;8.20;94.80;;;;;;5018072;28;20204;-71
2022/09/29 05:10:35;;;;;;;30.58;29.08;;;8.20;95.00;;;;;;5030818;28;20209;-71
2022/09/29 05:13:02;;;;;;;27.27;25.75;;;8.20;95.10;;;;;;5026324;28;20222;-71
2022/09/29 05:15:29;;;;;;;25.23;24.02;;;8.20;95.10;;;;;;5026363;28;20291;-71
2022/09/29 05:18:01;;;;;;;26.83;25.45;;;8.20;97.00;;;;;;5018713;28;20252;-71
2022/09/29 05:20:28;;;;;;;19.45;18.27;;;8.20;96.90;;;;;;5019463;28;20836;-71
2022/09/29 05:22:58;;;;;;;17.95;16.95;;;8.20;96.60;;;;;;5021345;28;20228;-71
2022/09/29 05:25:26;;;;;;;31.60;30.02;;;8.20;96.30;;;;;;5018150;28;20217;-71
2022/09/29 05:27:53;;;;;;;18.63;17.42;;;8.20;96.00;;;;;;5024078;28;20204;-70
2022/09/29 05:30:20;;;;;;;15.38;14.43;;;8.30;95.90;;;;;;5036113;28;20204;-70
2022/09/29 05:32:47;;;;;;;18.15;17.15;;;8.30;95.80;;;;;;5024544;28;20228;-71
2022/09/29 05:35:14;;;;;;;22.38;21.02;;;8.30;95.70;;;;;;5024680;28;20561;-72
2022/09/29 05:37:41;;;;;;;28.38;26.83;;;8.50;95.60;;;;;;5029253;28;20210;-75
2022/09/29 05:40:09;;;;;;;30.65;29.25;;;8.50;94.70;;;;;;5032933;28;20221;-76
2022/09/29 05:42:39;;;;;;;19.98;18.73;;;8.40;94.50;;;;;;5028551;28;20194;-73
2022/09/29 05:45:09;;;;;;;22.00;20.80;;;8.40;94.80;;;;;;5023581;28;20530;-72
2022/09/29 05:47:36;;;;;;;32.88;31.27;;;8.40;94.90;;;;;;5022396;28;20822;-71
2022/09/29 05:50:03;;;;;;;18.40;17.45;;;8.40;94.80;;;;;;5025467;28;20842;-75
2022/09/29 05:52:30;;;;;;;31.52;30.08;;;8.50;94.50;;;;;;5026461;28;20193;-73
2022/09/29 05:54:57;;;;;;;22.98;21.65;;;8.50;94.60;;;;;;5025692;28;20784;-72
2022/09/29 05:57:23;;;;;;;17.35;16.25;;;8.50;94.50;;;;;;5029864;28;20213;-71
2022/09/29 05:59:52;;;;;;;21.55;20.25;;;8.60;94.40;;;;;;5035899;28;20201;-70
2022/09/29 06:02:19;;;;;;;19.17;18.08;;;8.70;94.40;;;;;;5028576;28;20199;-70
2022/09/29 06:04:45;;;;;;;19.50;18.17;;;8.70;94.20;;;;;;5024915;28;20206;-71
2022/09/29 06:07:12;;;;;;;18.07;16.80;;;8.80;94.20;;;;;;5026171;28;20536;-74
2022/09/29 06:09:39;;;;;;;21.13;19.97;;;8.80;94.10;;;;;;5023618;28;20518;-72
2022/09/29 06:12:06;;;;;;;18.03;16.90;;;8.90;94.00;;;;;;5022198;28;20468;-72
2022/09/29 06:14:33;;;;;;;22.90;21.80;;;9.00;93.70;;;;;;5020772;28;20602;-77
2022/09/29 06:17:01;;;;;;;31.60;30.07;;;9.00;93.30;;;;;;5028356;28;20505;-73
2022/09/29 06:19:28;;;;;;;24.60;23.10;;;9.10;92.60;;;;;;5017498;28;20929;-78
2022/09/29 06:21:55;;;;;;;21.45;20.35;;;9.00;92.20;;;;;;5035090;28;20458;-75
2022/09/29 06:24:22;;;;;;;24.10;22.73;;;9.00;92.20;;;;;;5026027;28;20457;-73
2022/09/29 06:26:49;;;;;;;20.77;19.37;;;9.00;92.40;;;;;;5027919;28;20481;-72
2022/09/29 06:29:16;;;;;;;22.83;21.63;;;9.10;92.30;;;;;;5028804;28;20462;-73
2022/09/29 06:31:43;;;;;;;35.10;33.30;;;9.20;92.10;;;;;;5024376;28;20202;-74
2022/09/29 06:34:11;;;;;;;31.50;29.80;;;9.30;92.10;;;;;;5026727;28;20586;-71
2022/09/29 06:39:26;;;;;;;29.60;27.90;;;9.50;92.00;;;;;;5022407;28;20621;-70
2022/09/29 06:41:55;;;;;;;20.20;19.00;;;9.60;91.60;;;;;;5021450;28;20496;-72
2022/09/29 06:44:23;;;;;;;24.13;22.73;;;9.80;91.00;;;;;;5021646;28;20838;-70
2022/09/29 06:46:51;;;;;;;29.67;28.03;;;9.90;90.50;;;;;;5014041;28;20825;-70
2022/09/29 06:49:19;;;;;;;21.03;19.83;;;9.90;90.20;;;;;;5030444;28;20665;-71
2022/09/29 06:51:46;;;;;;;20.33;19.17;;;9.90;90.10;;;;;;5023842;28;20562;-70
2022/09/29 06:54:15;;;;;;;19.43;18.23;;;10.00;90.00;;;;;;5022968;28;20629;-71
2022/09/29 06:56:42;;;;;;;32.47;30.77;;;10.10;89.90;;;;;;5024911;28;20486;-69
2022/09/29 06:59:09;;;;;;;25.07;23.47;;;10.30;89.10;;;;;;5019844;28;20468;-70
2022/09/29 07:01:36;;;;;;;30.07;28.37;;;10.40;88.10;;;;;;5025993;28;20654;-71
2022/09/29 07:04:03;;;;;;;24.63;23.10;;;10.40;88.10;;;;;;5023720;28;20493;-72
2022/09/29 07:06:31;;;;;;;42.00;39.87;;;10.40;88.10;;;;;;5025413;28;20857;-73
2022/09/29 07:09:00;;;;;;;36.87;34.80;;;10.30;88.50;;;;;;5021820;28;20470;-74
2022/09/29 07:11:27;;;;;;;29.93;28.43;;;10.40;88.40;;;;;;5027313;28;20466;-73
2022/09/29 07:13:56;;;;;;;26.27;24.97;;;10.60;88.10;;;;;;5021815;28;20476;-72
2022/09/29 07:16:23;;;;;;;26.77;25.13;;;10.80;87.00;;;;;;5018383;28;20939;-73
2022/09/29 07:18:50;;;;;;;31.60;29.90;;;10.80;87.10;;;;;;5018418;28;21000;-71
2022/09/29 07:21:18;;;;;;;37.50;35.30;;;10.90;86.90;;;;;;5023638;28;20667;-72
2022/09/29 07:23:47;;;;;;;31.57;29.70;;;11.00;85.60;;;;;;5023481;28;21129;-72
2022/09/29 07:26:16;;;;;;;31.20;29.60;;;11.00;85.80;;;;;;5023860;28;20453;-73
2022/09/29 07:28:43;;;;;;;24.43;23.03;;;11.10;85.90;;;;;;5029088;28;20460;-72
2022/09/29 07:31:13;;;;;;;41.90;39.53;;;11.20;85.20;;;;;;5027655;28;20551;-72
2022/09/29 07:33:40;;;;;;;30.07;28.57;;;11.10;85.20;;;;;;5028665;28;20494;-72
2022/09/29 07:36:07;;;;;;;50.03;47.70;;;11.10;85.50;;;;;;5028027;28;20467;-72
2022/09/29 07:38:34;;;;;;;24.37;22.77;;;11.20;85.30;;;;;;5029694;28;20487;-72
2022/09/29 07:41:03;;;;;;;40.63;38.03;;;11.20;85.40;;;;;;5032264;28;20450;-71
2022/09/29 07:43:31;;;;;;;28.10;26.57;;;11.20;85.80;;;;;;5025647;28;20490;-73
2022/09/29 07:45:59;;;;;;;27.13;25.50;;;11.40;85.30;;;;;;5025107;28;20847;-72
2022/09/29 07:48:27;;;;;;;27.77;25.97;;;11.50;85.20;;;;;;5024465;28;20444;-74
2022/09/29 07:51:01;;;;;;;43.37;41.07;;;11.60;84.20;;;;;;5033480;28;20451;-72
2022/09/29 07:53:28;;;;;;;38.20;36.10;;;11.70;83.90;;;;;;5023159;28;20477;-75
2022/09/29 07:55:55;;;;;;;27.77;26.27;;;11.80;83.70;;;;;;5029544;28;20448;-72
2022/09/29 07:58:23;;;;;;;41.47;39.00;;;11.80;84.10;;;;;;5027559;28;20482;-72
2022/09/29 08:00:54;;;;;;;29.17;27.27;;;12.00;83.80;;;;;;5037620;28;20500;-73
2022/09/29 08:03:24;;;;;;;42.50;40.40;;;12.10;82.20;;;;;;5024727;28;20483;-72
2022/09/29 08:05:51;;;;;;;33.97;32.23;;;12.00;82.30;;;;;;5030728;28;20452;-74
2022/09/29 08:08:18;;;;;;;27.40;25.83;;;11.90;83.20;;;;;;5025311;28;21943;-72
2022/09/29 08:10:45;;;;;;;31.53;29.87;;;12.10;82.80;;;;;;5040602;28;20618;-72
2022/09/29 08:13:12;;;;;;;39.63;37.77;;;12.20;82.30;;;;;;5028229;28;20575;-74
2022/09/29 08:15:40;;;;;;;44.63;42.13;;;12.30;81.60;;;;;;5028913;28;20969;-72
2022/09/29 08:18:07;;;;;;;35.57;33.77;;;12.40;81.20;;;;;;5026776;28;20474;-73
2022/09/29 08:20:35;;;;;;;27.13;25.50;;;12.40;81.30;;;;;;5020836;28;20451;-72
2022/09/29 08:23:07;;;;;;;39.20;37.20;;;12.40;81.50;;;;;;5027061;28;21060;-73
2022/09/29 08:25:35;;;;;;;34.67;33.00;;;12.60;81.30;;;;;;5025315;28;20562;-71
2022/09/29 08:28:02;;;;;;;33.73;31.97;;;12.80;80.60;;;;;;5021297;28;20468;-74
2022/09/29 08:30:29;;;;;;;31.00;29.00;;;12.90;80.60;;;;;;5031265;28;20460;-72
2022/09/29 08:32:57;;;;;;;27.53;25.27;;;13.10;83.10;;;;;;5029053;28;20474;-72
2022/09/29 08:35:25;;;;;;;40.63;38.47;;;13.20;80.30;;;;;;5022827;28;20497;-72
2022/09/29 08:37:54;;;;;;;37.47;35.67;;;13.40;79.50;;;;;;5027083;28;20499;-74
2022/09/29 08:40:21;;;;;;;33.67;31.90;;;13.50;78.30;;;;;;5032936;28;20460;-74
2022/09/29 08:42:57;;;;;;;28.90;26.67;;;13.60;77.90;;;;;;5030177;28;20504;-77
2022/09/29 08:45:29;;;;;;;38.47;36.47;;;13.70;78.30;;;;;;5025193;28;20480;-75
2022/09/29 08:48:07;;;;;;;30.97;29.43;;;13.70;76.80;;;;;;5027812;28;20460;-77
2022/09/29 08:50:45;;;;;;;43.23;41.03;;;13.80;77.00;;;;;;5025896;28;20466;-74
2022/09/29 08:53:16;;;;;;;28.73;27.23;;;13.80;76.60;;;;;;5020211;28;20884;-78
2022/09/29 08:55:47;;;;;;;31.20;29.63;;;14.10;76.20;;;;;;5026815;28;21009;-75
2022/09/29 08:58:16;;;;;;;38.93;36.93;;;14.10;75.80;;;;;;5027275;28;21055;-77
2022/09/29 09:00:48;;;;;;;42.60;40.10;;;14.10;75.30;;;;;;5025837;28;20460;-75
2022/09/29 09:03:50;;;;;;;33.03;31.30;;;14.10;74.90;;;;;;5023956;28;20518;-75
2022/09/29 09:06:31;;;;;;;38.27;36.17;;;14.10;75.70;;;;;;5026652;28;20471;-75
2022/09/29 09:09:14;;;;;;;29.27;27.80;;;14.30;75.20;;;;;;5025742;28;20443;-76
2022/09/29 09:11:57;;;;;;;32.23;30.50;;;14.50;73.80;;;;;;5026853;28;21046;-76
2022/09/29 09:14:43;;;;;;;29.50;28.03;;;14.40;73.80;;;;;;5033839;28;20497;-76
2022/09/29 09:17:25;;;;;;;40.03;38.13;;;14.30;74.00;;;;;;5024411;28;20483;-74
2022/09/29 09:20:20;;;;;;;31.10;29.50;;;14.30;73.90;;;;;;5024655;28;20463;-75
2022/09/29 09:22:56;;;;;;;38.30;36.20;;;14.50;73.90;;;;;;5014566;28;20507;-73
2022/09/29 09:25:29;;;;;;;42.53;40.33;;;14.60;73.40;;;;;;5029225;28;20467;-78
2022/09/29 09:28:03;;;;;;;36.10;34.20;;;14.70;73.20;;;;;;5017762;28;20503;-76
2022/09/29 09:30:39;;;;;;;38.33;36.20;;;14.70;72.60;;;;;;5032802;28;20463;-71
2022/09/29 09:33:21;;;;;;;31.30;29.77;;;14.70;72.50;;;;;;5026383;28;21076;-73
2022/09/29 09:35:54;;;;;;;31.90;30.50;;;14.90;72.10;;;;;;5031762;28;20460;-71
2022/09/29 09:38:27;;;;;;;30.40;28.93;;;15.00;71.10;;;;;;5025132;28;20476;-73
2022/09/29 09:40:57;;;;;;;30.83;29.43;;;15.00;71.60;;;;;;5024612;28;20491;-71
2022/09/29 09:43:30;;;;;;;32.93;31.13;;;15.00;74.60;;;;;;5028458;28;20488;-72
2022/09/29 09:46:02;;;;;;;41.57;39.47;;;15.30;71.80;;;;;;5030697;28;20456;-72
2022/09/29 09:48:33;;;;;;;39.90;37.87;;;15.40;70.80;;;;;;5022099;28;20452;-72
2022/09/29 09:51:22;;;;;;;34.50;32.20;;;15.40;70.70;;;;;;5020919;28;20503;-72
2022/09/29 09:53:52;;;;;;;29.93;28.53;;;15.60;69.90;;;;;;5021550;28;20862;-73
2022/09/29 09:56:34;;;;;;;36.63;34.83;;;15.70;70.20;;;;;;5025111;28;20458;-73
2022/09/29 09:59:15;;;;;;;30.63;29.03;;;15.90;71.80;;;;;;5019998;28;20478;-73
2022/09/29 10:01:42;;;;;;;30.60;29.00;;;16.20;70.00;;;;;;5020514;28;20466;-76
2022/09/29 10:04:12;;;;;;;28.80;27.30;;;16.30;68.30;;;;;;5020530;28;20481;-79
2022/09/29 10:06:41;;;;;;;32.53;30.47;;;16.50;67.40;;;;;;5019130;28;20456;-76
2022/09/29 10:09:13;;;;;;;28.17;26.77;;;16.70;66.60;;;;;;5028461;28;20447;-76
2022/09/29 10:11:42;;;;;;;35.27;33.33;;;16.80;65.30;;;;;;5017994;28;20558;-73
2022/09/29 10:14:14;;;;;;;36.50;34.60;;;16.90;64.60;;;;;;5020057;28;20487;-73
2022/09/29 10:16:45;;;;;;;27.43;26.20;;;16.80;65.40;;;;;;5020779;28;20810;-74
2022/09/29 10:19:12;;;;;;;33.97;32.43;;;16.80;65.30;;;;;;5019931;28;20480;-73
2022/09/29 10:21:42;;;;;;;33.87;31.97;;;16.90;64.80;;;;;;5020864;28;20495;-77
2022/09/29 10:24:24;;;;;;;37.30;35.40;;;16.80;64.50;;;;;;5018644;28;20658;-72
2022/09/29 10:26:54;;;;;;;32.80;31.40;;;16.70;65.40;;;;;;5021826;28;20460;-72
2022/09/29 10:29:28;;;;;;;34.77;33.13;;;16.70;65.60;;;;;;5024114;28;20550;-72
2022/09/29 10:32:06;;;;;;;34.63;33.03;;;16.70;68.30;;;;;;5020831;28;20983;-71
2022/09/29 10:34:36;;;;;;;29.73;27.97;;;16.90;66.20;;;;;;5022190;28;20478;-71
2022/09/29 10:37:07;;;;;;;26.83;25.63;;;17.20;64.10;;;;;;5021917;28;21068;-71
2022/09/29 10:39:41;;;;;;;43.40;41.20;;;17.30;62.80;;;;;;5025449;28;20476;-70
2022/09/29 10:42:21;;;;;;;33.00;31.47;;;17.40;62.50;;;;;;5023275;28;20957;-72
2022/09/29 10:44:53;;;;;;;27.07;25.77;;;17.70;62.10;;;;;;5021808;28;20555;-72
2022/09/29 10:47:22;;;;;;;30.03;28.40;;;18.00;61.40;;;;;;5025852;28;20464;-71
2022/09/29 10:50:08;;;;;;;38.47;36.40;;;17.80;61.30;;;;;;5024086;28;20471;-73
2022/09/29 10:52:36;;;;;;;29.47;27.93;;;17.90;61.10;;;;;;5024265;28;20473;-71
2022/09/29 10:55:04;;;;;;;27.40;26.00;;;17.80;61.30;;;;;;5021910;28;20457;-72
2022/09/29 10:57:34;;;;;;;29.40;27.80;;;17.90;60.90;;;;;;5020384;28;20456;-72
2022/09/29 11:00:02;;;;;;;41.57;39.63;;;17.70;61.30;;;;;;5023735;28;20453;-72
2022/09/29 11:02:32;;;;;;;36.63;34.77;;;17.70;61.70;;;;;;5031083;28;20961;-71
2022/09/29 11:05:02;;;;;;;37.70;35.93;;;17.90;61.70;;;;;;5022491;28;20460;-71
2022/09/29 11:07:30;;;;;;;30.30;28.87;;;18.10;60.50;;;;;;5024560;28;20941;-75
2022/09/29 11:09:59;;;;;;;29.63;28.23;;;18.10;59.40;;;;;;5022441;28;20470;-75
2022/09/29 11:12:30;;;;;;;28.27;26.93;;;18.20;59.30;;;;;;5029728;28;20463;-73
2022/09/29 11:14:58;;;;;;;29.93;28.57;;;18.40;57.90;;;;;;5028232;28;20524;-75
2022/09/29 11:17:27;;;;;;;34.73;33.13;;;18.30;57.40;;;;;;5027456;28;20463;-77
2022/09/29 11:19:56;;;;;;;30.30;28.90;;;18.00;58.70;;;;;;5022536;28;20834;-72
2022/09/29 11:23:10;;;;;;;27.47;26.30;;;17.90;59.00;;;;;;5024513;28;20461;-74
2022/09/29 11:26:06;;;;;;;29.53;27.83;;;18.00;58.30;;;;;;5035042;28;20543;-74
2022/09/29 11:28:51;;;;;;;27.07;25.53;;;18.10;58.00;;;;;;5029367;28;20454;-74
2022/09/29 11:31:32;;;;;;;33.50;32.00;;;17.80;59.40;;;;;;5023653;28;20462;-75
2022/09/29 11:34:17;;;;;;;29.03;27.73;;;17.70;60.00;;;;;;5033542;28;20467;-74
2022/09/29 11:36:50;;;;;;;28.60;27.03;;;17.70;60.60;;;;;;5025757;28;20545;-74
2022/09/29 11:39:34;;;;;;;26.73;25.57;;;17.90;60.30;;;;;;5026966;28;20506;-75
2022/09/29 11:42:18;;;;;;;27.83;26.33;;;17.90;60.40;;;;;;5024450;28;20533;-75
2022/09/29 11:44:58;;;;;;;26.03;24.63;;;17.80;60.40;;;;;;5021561;28;20459;-75
2022/09/29 11:47:44;;;;;;;35.67;33.87;;;17.70;60.80;;;;;;5028789;28;20477;-76
2022/09/29 11:50:25;;;;;;;29.13;27.63;;;17.80;60.10;;;;;;5030490;28;20978;-75
2022/09/29 11:53:15;;;;;;;32.67;30.63;;;17.40;60.30;;;;;;5021825;28;20600;-77
2022/09/29 11:55:58;;;;;;;26.80;25.30;;;17.00;61.60;;;;;;5031373;28;20460;-80
2022/09/29 11:58:37;;;;;;;28.70;27.03;;;16.90;63.00;;;;;;5028081;28;20480;-82
2022/09/29 12:01:17;;;;;;;44.40;42.00;;;17.10;63.50;;;;;;5019583;28;20819;-76
2022/09/29 12:03:49;;;;;;;28.20;26.80;;;17.20;63.80;;;;;;5029623;28;21088;-78
2022/09/29 12:06:50;;;;;;;36.20;34.20;;;17.50;61.90;;;;;;5027373;28;20460;-82
2022/09/29 12:09:40;;;;;;;37.60;35.63;;;17.80;61.20;;;;;;5024881;28;20479;-77
2022/09/29 12:12:13;;;;;;;28.53;27.13;;;17.70;59.50;;;;;;5029507;28;20454;-78
2022/09/29 12:15:03;;;;;;;28.10;26.70;;;17.70;59.20;;;;;;5032091;28;20471;-76
2022/09/29 12:17:36;;;;;;;43.27;41.10;;;17.60;59.60;;;;;;5030301;28;20460;-77
2022/09/29 12:20:12;;;;;;;36.63;34.83;;;17.70;59.80;;;;;;5032061;28;20599;-76
2022/09/29 12:22:40;;;;;;;33.73;32.03;;;17.80;59.80;;;;;;5029389;28;20480;-76
2022/09/29 12:25:15;;;;;;;38.97;36.90;;;17.90;59.60;;;;;;5030814;28;20468;-76
2022/09/29 12:27:45;;;;;;;33.03;31.43;;;18.00;58.80;;;;;;5019894;28;20547;-75
2022/09/29 12:30:21;;;;;;;36.87;34.97;;;18.10;59.20;;;;;;5025399;28;20459;-78
2022/09/29 12:32:56;;;;;;;38.50;36.50;;;18.20;59.30;;;;;;5029513;28;20487;-78
2022/09/29 12:35:31;;;;;;;33.37;31.77;;;18.30;58.90;;;;;;5034495;28;20452;-76
2022/09/29 12:38:08;;;;;;;28.27;26.87;;;18.20;58.40;;;;;;5028663;28;21005;-74
2022/09/29 12:40:38;;;;;;;38.47;36.30;;;18.30;58.50;;;;;;5022722;28;20453;-76
2022/09/29 12:43:11;;;;;;;37.13;35.33;;;18.40;58.90;;;;;;5027826;28;20480;-78
2022/09/29 12:45:48;;;;;;;43.03;40.93;;;18.40;58.30;;;;;;5029100;28;20462;-76
2022/09/29 12:48:25;;;;;;;28.97;27.77;;;18.40;58.20;;;;;;5024325;28;20466;-76
2022/09/29 12:51:01;;;;;;;40.33;38.30;;;18.30;57.70;;;;;;5034819;28;20469;-74
2022/09/29 12:53:34;;;;;;;41.97;39.97;;;18.30;57.10;;;;;;5027309;28;20482;-75
2022/09/29 12:56:05;;;;;;;32.17;30.77;;;18.20;56.70;;;;;;5020013;28;20513;-75
2022/09/29 12:58:40;;;;;;;30.17;28.53;;;18.00;56.70;;;;;;5027383;28;20483;-72